createdAt,value
2017-11-04T00:01:23.387Z,11.55
2017-11-04T00:03:51.029Z,11.38
2017-11-04T00:06:18.814Z,11.41
2017-11-04T00:08:46.415Z,11.31
2017-11-04T00:11:14.048Z,11.41
2017-11-04T00:13:41.640Z,11.55
2017-11-04T00:16:09.242Z,11.43
2017-11-04T00:18:36.900Z,11.58
2017-11-04T00:21:04.710Z,11.62
2017-11-04T00:23:32.329Z,11.34
2017-11-04T00:26:00.058Z,11.55
2017-11-04T00:28:27.875Z,11.54
2017-11-04T00:30:55.570Z,11.29
2017-11-04T00:33:23.240Z,11.47
2017-11-04T00:35:51.385Z,11.46
2017-11-04T00:38:19.102Z,11.26
2017-11-04T00:40:46.665Z,11.14
2017-11-04T00:43:14.250Z,11.32
2017-11-04T00:45:41.851Z,11.26
2017-11-04T00:48:09.398Z,11.40
2017-11-04T00:50:37.162Z,11.36
2017-11-04T00:53:04.751Z,11.30
2017-11-04T00:55:32.438Z,11.27
2017-11-04T00:58:00.318Z,11.42
2017-11-04T01:00:27.964Z,11.42
2017-11-04T01:02:55.764Z,11.62
2017-11-04T01:05:23.386Z,11.55
2017-11-04T01:07:51.193Z,11.68
2017-11-04T01:10:18.819Z,11.58
2017-11-04T01:12:46.367Z,11.62
2017-11-04T01:15:14.024Z,11.69
2017-11-04T01:17:41.576Z,11.62
2017-11-04T01:20:09.164Z,11.60
2017-11-04T01:22:36.845Z,11.46
2017-11-04T01:25:04.457Z,11.27
2017-11-04T01:27:32.026Z,11.33
2017-11-04T01:29:59.687Z,11.49
2017-11-04T01:32:27.303Z,11.30
2017-11-04T01:34:55.073Z,11.26
2017-11-04T01:37:22.871Z,11.34
2017-11-04T01:39:50.561Z,11.17
2017-11-04T01:42:18.195Z,11.32
2017-11-04T01:44:45.777Z,11.26
2017-11-04T01:47:13.411Z,11.15
2017-11-04T01:49:41.043Z,11.18
2017-11-04T01:52:08.733Z,11.27
2017-11-04T01:54:36.406Z,11.32
2017-11-04T01:57:03.968Z,11.42
2017-11-04T01:59:31.559Z,11.15
2017-11-04T02:01:59.181Z,11.33
2017-11-04T02:04:26.792Z,11.03
2017-11-04T02:06:55.302Z,11.34
2017-11-04T02:09:22.922Z,11.15
2017-11-04T02:11:50.586Z,11.00
2017-11-04T02:14:18.357Z,11.11
2017-11-04T02:16:45.983Z,11.14
2017-11-04T02:19:13.529Z,11.08
2017-11-04T02:21:41.164Z,10.97
2017-11-04T02:24:08.787Z,10.97
2017-11-04T02:26:36.400Z,10.95
2017-11-04T02:29:04.007Z,10.87
2017-11-04T02:31:31.707Z,10.86
2017-11-04T02:33:59.351Z,10.72
2017-11-04T02:36:27.249Z,10.77
2017-11-04T02:38:54.916Z,10.96
2017-11-04T02:41:22.884Z,10.67
2017-11-04T02:43:50.524Z,10.77
2017-11-04T02:46:18.167Z,10.88
2017-11-04T02:48:45.729Z,10.81
2017-11-04T02:51:14.388Z,10.59
2017-11-04T02:53:42.006Z,10.91
2017-11-04T02:56:09.839Z,10.86
2017-11-04T02:58:37.484Z,10.97
2017-11-04T03:01:05.140Z,10.86
2017-11-04T03:03:32.754Z,10.78
2017-11-04T03:06:00.285Z,10.79
2017-11-04T03:08:27.922Z,10.66
2017-11-04T03:10:55.690Z,10.75
2017-11-04T03:13:23.258Z,10.58
2017-11-04T03:15:50.881Z,10.56
2017-11-04T03:18:19.104Z,10.74
2017-11-04T03:20:47.618Z,10.84
2017-11-04T03:23:15.653Z,10.69
2017-11-04T03:25:43.247Z,11.00
2017-11-04T03:28:10.884Z,10.93
2017-11-04T03:30:38.608Z,10.84
2017-11-04T03:33:06.182Z,11.00
2017-11-04T03:35:33.946Z,10.95
2017-11-04T03:38:01.581Z,10.79
2017-11-04T03:40:29.174Z,10.61
2017-11-04T03:42:56.756Z,10.80
2017-11-04T03:45:24.362Z,10.73
2017-11-04T03:47:51.964Z,10.94
2017-11-04T03:50:19.575Z,10.90
2017-11-04T03:52:47.199Z,10.68
2017-11-04T03:55:14.808Z,10.83
2017-11-04T03:57:42.405Z,10.74
2017-11-04T04:00:10.027Z,10.61
2017-11-04T04:02:37.668Z,10.68
2017-11-04T04:05:05.443Z,10.75
2017-11-04T04:07:33.102Z,10.81
2017-11-04T04:10:00.662Z,10.71
2017-11-04T04:12:28.425Z,10.58
2017-11-04T04:14:56.015Z,10.85
2017-11-04T04:17:23.662Z,10.86
2017-11-04T04:19:51.415Z,10.62
2017-11-04T04:22:19.011Z,10.82
2017-11-04T04:24:46.586Z,10.70
2017-11-04T04:27:14.168Z,10.76
2017-11-04T04:29:41.806Z,10.80
2017-11-04T04:32:10.227Z,10.68
2017-11-04T04:34:38.006Z,10.97
2017-11-04T04:37:05.790Z,10.90
2017-11-04T04:39:33.478Z,10.82
2017-11-04T04:42:01.089Z,10.71
2017-11-04T04:44:28.751Z,10.83
2017-11-04T04:46:56.457Z,11.00
2017-11-04T04:49:24.060Z,11.01
2017-11-04T04:51:52.693Z,10.94
2017-11-04T04:54:20.826Z,10.67
2017-11-04T04:56:48.431Z,10.78
2017-11-04T04:59:16.039Z,10.90
2017-11-04T05:01:43.898Z,10.92
2017-11-04T05:04:11.690Z,10.89
2017-11-04T05:06:39.447Z,11.02
2017-11-04T05:09:07.047Z,11.06
2017-11-04T05:11:34.642Z,10.91
2017-11-04T05:14:02.261Z,10.94
2017-11-04T05:16:29.898Z,10.89
2017-11-04T05:18:58.274Z,10.92
2017-11-04T05:21:25.859Z,10.76
2017-11-04T05:23:53.567Z,10.70
2017-11-04T05:26:21.438Z,10.79
2017-11-04T05:28:49.192Z,10.84
2017-11-04T05:31:16.813Z,10.68
2017-11-04T05:33:44.453Z,10.67
2017-11-04T05:36:12.398Z,10.91
2017-11-04T05:38:40.181Z,10.91
2017-11-04T05:41:07.790Z,10.77
2017-11-04T05:43:35.335Z,10.87
2017-11-04T05:46:03.188Z,10.70
2017-11-04T05:48:31.173Z,10.85
2017-11-04T05:50:58.808Z,10.83
2017-11-04T05:53:26.424Z,10.79
2017-11-04T05:55:54.167Z,10.79
2017-11-04T05:58:22.531Z,10.75
2017-11-04T06:00:50.195Z,10.83
2017-11-04T06:03:17.931Z,10.54
2017-11-04T06:05:45.722Z,10.83
2017-11-04T06:08:13.358Z,10.86
2017-11-04T06:10:41.753Z,10.95
2017-11-04T06:13:09.716Z,11.06
2017-11-04T06:15:37.467Z,11.12
2017-11-04T06:18:05.266Z,11.05
2017-11-04T06:20:32.940Z,11.02
2017-11-04T06:23:00.630Z,11.03
2017-11-04T06:25:29.014Z,10.78
2017-11-04T06:27:56.726Z,10.83
2017-11-04T06:30:24.486Z,10.64
2017-11-04T06:32:52.092Z,10.91
2017-11-04T06:35:19.714Z,10.76
2017-11-04T06:37:47.546Z,10.99
2017-11-04T06:40:15.189Z,10.84
2017-11-04T06:42:42.851Z,11.32
2017-11-04T06:45:10.470Z,12.22
2017-11-04T06:47:38.153Z,13.07
2017-11-04T06:50:06.700Z,13.93
2017-11-04T06:52:34.359Z,14.36
2017-11-04T06:55:01.963Z,14.76
2017-11-04T06:57:29.583Z,15.42
2017-11-04T06:59:57.721Z,16.28
2017-11-04T07:02:25.351Z,16.54
2017-11-04T07:04:53.039Z,17.28
2017-11-04T07:07:20.691Z,16.95
2017-11-04T07:09:48.370Z,17.35
2017-11-04T07:12:16.219Z,17.51
2017-11-04T07:14:43.770Z,17.31
2017-11-04T07:17:11.488Z,18.44
2017-11-04T07:19:39.200Z,19.73
2017-11-04T07:22:06.787Z,20.16
2017-11-04T07:24:34.435Z,20.28
2017-11-04T07:27:02.062Z,20.35
2017-11-04T07:29:29.705Z,20.01
2017-11-04T07:31:57.335Z,20.59
2017-11-04T07:34:24.948Z,20.74
2017-11-04T07:36:52.879Z,22.17
2017-11-04T07:39:20.506Z,22.59
2017-11-04T07:41:48.407Z,22.70
2017-11-04T07:44:16.064Z,22.56
2017-11-04T07:46:43.725Z,22.64
2017-11-04T07:49:11.310Z,23.35
2017-11-04T07:51:38.911Z,24.14
2017-11-04T07:54:06.593Z,23.63
2017-11-04T07:56:35.531Z,23.42
2017-11-04T07:59:03.914Z,24.20
2017-11-04T08:01:31.606Z,23.69
2017-11-04T08:03:59.232Z,22.15
2017-11-04T08:06:26.852Z,21.92
2017-11-04T08:08:54.544Z,21.40
2017-11-04T08:11:23.065Z,20.77
2017-11-04T08:13:50.714Z,19.51
2017-11-04T08:16:19.151Z,19.42
2017-11-04T08:18:46.753Z,19.94
2017-11-04T08:21:14.392Z,19.18
2017-11-04T08:23:42.019Z,19.05
2017-11-04T08:26:09.697Z,18.98
2017-11-04T08:28:37.906Z,19.07
2017-11-04T08:31:05.690Z,19.12
2017-11-04T08:33:33.266Z,19.34
2017-11-04T08:36:00.861Z,18.91
2017-11-04T08:38:28.530Z,19.10
2017-11-04T08:40:56.179Z,20.33
2017-11-04T08:43:23.802Z,21.77
2017-11-04T08:45:51.450Z,22.38
2017-11-04T08:48:19.056Z,23.23
2017-11-04T08:50:46.667Z,23.07
2017-11-04T08:53:14.281Z,22.69
2017-11-04T08:55:42.010Z,22.51
2017-11-04T08:58:09.601Z,22.54
2017-11-04T09:00:37.914Z,22.47
2017-11-04T09:03:06.359Z,22.62
2017-11-04T09:05:33.968Z,23.60
2017-11-04T09:08:01.701Z,23.45
2017-11-04T09:10:29.477Z,23.97
2017-11-04T09:12:57.118Z,24.74
2017-11-04T09:15:25.744Z,24.76
2017-11-04T09:17:53.727Z,24.89
2017-11-04T09:20:22.388Z,23.39
2017-11-04T09:22:50.188Z,23.86
2017-11-04T09:25:17.783Z,24.16
2017-11-04T09:27:45.423Z,22.74
2017-11-04T09:30:13.100Z,23.46
2017-11-04T09:32:41.064Z,24.20
2017-11-04T09:35:08.914Z,23.24
2017-11-04T09:37:36.924Z,21.06
2017-11-04T09:40:04.504Z,21.16
2017-11-04T09:42:32.164Z,20.92
2017-11-04T09:44:59.853Z,20.91
2017-11-04T09:47:27.466Z,20.95
2017-11-04T09:49:55.062Z,19.47
2017-11-04T09:52:22.787Z,20.02
2017-11-04T09:54:50.401Z,19.01
2017-11-04T09:57:18.001Z,18.64
2017-11-04T09:59:45.618Z,18.30
2017-11-04T10:02:13.270Z,17.06
2017-11-04T10:04:40.871Z,17.33
2017-11-04T10:07:08.523Z,17.40
2017-11-04T10:09:36.202Z,17.57
2017-11-04T10:12:03.865Z,17.65
2017-11-04T10:14:31.530Z,18.57
2017-11-04T10:16:59.165Z,17.72
2017-11-04T10:19:26.779Z,16.92
2017-11-04T10:21:54.403Z,16.46
2017-11-04T10:24:22.003Z,15.90
2017-11-04T10:26:49.751Z,16.15
2017-11-04T10:29:17.586Z,16.15
2017-11-04T10:31:45.598Z,15.28
2017-11-04T10:34:13.263Z,16.41
2017-11-04T10:36:41.558Z,15.85
2017-11-04T10:39:09.598Z,15.81
2017-11-04T10:41:37.253Z,16.12
2017-11-04T10:44:04.856Z,15.75
2017-11-04T10:46:32.552Z,15.74
2017-11-04T10:49:00.370Z,15.76
2017-11-04T10:51:27.984Z,15.78
2017-11-04T10:53:55.672Z,16.09
2017-11-04T10:56:23.338Z,16.40
2017-11-04T10:58:50.983Z,16.89
2017-11-04T11:01:18.622Z,17.22
2017-11-04T11:03:46.465Z,17.01
2017-11-04T11:06:14.133Z,17.34
2017-11-04T11:08:41.788Z,17.37
2017-11-04T11:11:10.516Z,17.52
2017-11-04T11:13:38.303Z,17.97
2017-11-04T11:16:06.127Z,17.81
2017-11-04T11:18:33.757Z,17.69
2017-11-04T11:21:01.377Z,18.05
2017-11-04T11:23:29.236Z,17.40
2017-11-04T11:25:56.844Z,18.29
2017-11-04T11:28:24.642Z,18.61
2017-11-04T11:30:52.337Z,18.91
2017-11-04T11:33:20.467Z,19.66
2017-11-04T11:35:48.258Z,19.80
2017-11-04T11:38:16.038Z,19.22
2017-11-04T11:40:43.699Z,19.64
2017-11-04T11:43:11.713Z,19.92
2017-11-04T11:45:39.612Z,19.08
2017-11-04T11:48:07.425Z,18.92
2017-11-04T11:50:35.150Z,18.88
2017-11-04T11:53:02.859Z,18.54
2017-11-04T11:55:33.328Z,18.17
2017-11-04T12:01:31.781Z,18.54
2017-11-04T12:03:59.548Z,19.08
2017-11-04T12:06:27.185Z,19.21
2017-11-04T12:08:54.805Z,19.31
2017-11-04T12:11:22.428Z,19.82
2017-11-04T12:13:49.959Z,19.81
2017-11-04T12:16:18.186Z,19.71
2017-11-04T12:18:45.729Z,19.27
2017-11-04T12:21:13.355Z,19.42
2017-11-04T12:23:41.187Z,19.41
2017-11-04T12:26:08.738Z,19.39
2017-11-04T12:28:36.486Z,19.08
2017-11-04T12:31:04.230Z,19.19
2017-11-04T12:33:31.843Z,19.02
2017-11-04T12:35:59.502Z,18.91
2017-11-04T12:38:27.154Z,19.01
2017-11-04T12:40:54.940Z,19.07
2017-11-04T12:43:22.778Z,19.74
2017-11-04T12:45:50.372Z,19.90
2017-11-04T12:48:17.947Z,20.03
2017-11-04T12:50:45.722Z,20.19
2017-11-04T12:53:13.435Z,20.31
2017-11-04T12:55:41.043Z,20.21
2017-11-04T12:58:08.803Z,19.97
2017-11-04T13:00:36.414Z,20.01
2017-11-04T13:03:04.080Z,20.20
2017-11-04T13:05:31.678Z,20.08
2017-11-04T13:07:59.482Z,20.28
2017-11-04T13:10:27.096Z,20.61
2017-11-04T13:12:54.756Z,20.51
2017-11-04T13:15:22.422Z,20.13
2017-11-04T13:17:50.215Z,19.85
2017-11-04T13:20:18.010Z,20.07
2017-11-04T13:22:46.120Z,19.99
2017-11-04T13:25:13.720Z,19.44
2017-11-04T13:27:41.540Z,19.15
2017-11-04T13:30:09.811Z,18.64
2017-11-04T13:32:37.695Z,18.30
2017-11-04T13:35:05.311Z,18.41
2017-11-04T13:37:33.979Z,18.36
2017-11-04T13:40:02.362Z,18.42
2017-11-04T13:42:29.955Z,18.26
2017-11-04T13:44:58.058Z,18.23
2017-11-04T13:47:25.763Z,18.19
2017-11-04T13:49:53.705Z,18.03
2017-11-04T13:52:21.309Z,17.78
2017-11-04T13:54:49.572Z,17.83
2017-11-04T13:57:17.429Z,17.73
2017-11-04T13:59:45.050Z,17.47
2017-11-04T14:02:12.734Z,17.47
2017-11-04T14:04:40.540Z,17.62
2017-11-04T14:07:08.167Z,17.57
2017-11-04T14:09:35.795Z,17.42
2017-11-04T14:12:03.401Z,17.27
2017-11-04T14:14:31.026Z,17.19
2017-11-04T14:16:58.640Z,17.46
2017-11-04T14:19:27.032Z,16.86
2017-11-04T14:21:54.830Z,16.77
2017-11-04T14:24:22.621Z,16.75
2017-11-04T14:26:51.078Z,16.69
2017-11-04T14:29:18.825Z,16.68
2017-11-04T14:31:46.441Z,16.61
2017-11-04T14:34:14.115Z,16.46
2017-11-04T14:36:41.762Z,16.32
2017-11-04T14:39:09.568Z,16.20
2017-11-04T14:41:37.463Z,16.13
2017-11-04T14:44:05.128Z,15.93
2017-11-04T14:46:33.697Z,15.91
2017-11-04T14:49:01.270Z,15.72
2017-11-04T14:51:28.910Z,15.91
2017-11-04T14:53:56.777Z,15.90
2017-11-04T14:56:24.378Z,15.65
2017-11-04T14:58:52.164Z,15.57
2017-11-04T15:01:19.795Z,15.52
2017-11-04T15:03:47.782Z,15.58
2017-11-04T15:06:15.482Z,15.55
2017-11-04T15:08:43.231Z,15.63
2017-11-04T15:11:10.795Z,15.59
2017-11-04T15:13:38.513Z,15.05
2017-11-04T15:16:06.160Z,15.04
2017-11-04T15:18:33.867Z,14.92
2017-11-04T15:21:01.547Z,15.08
2017-11-04T15:23:29.234Z,14.81
2017-11-04T15:25:56.982Z,14.30
2017-11-04T15:28:24.641Z,14.81
2017-11-04T15:30:52.210Z,14.66
2017-11-04T15:33:20.025Z,14.39
2017-11-04T15:35:47.611Z,14.11
2017-11-04T15:38:15.311Z,14.01
2017-11-04T15:40:42.865Z,13.66
2017-11-04T15:43:10.608Z,13.55
2017-11-04T15:45:38.824Z,13.42
2017-11-04T15:48:06.381Z,13.47
2017-11-04T15:50:34.086Z,13.45
2017-11-04T15:53:01.755Z,13.50
2017-11-04T15:55:29.347Z,13.52
2017-11-04T15:57:56.987Z,13.36
2017-11-04T16:00:25.007Z,13.49
2017-11-04T16:02:52.770Z,13.30
2017-11-04T16:05:20.562Z,13.30
2017-11-04T16:07:48.231Z,13.27
2017-11-04T16:10:16.491Z,13.26
2017-11-04T16:12:44.320Z,13.07
2017-11-04T16:15:11.991Z,12.56
2017-11-04T16:17:39.832Z,12.72
2017-11-04T16:20:07.611Z,12.50
2017-11-04T16:22:35.251Z,12.35
2017-11-04T16:25:02.829Z,11.84
2017-11-04T16:27:30.457Z,11.96
2017-11-04T16:29:58.202Z,12.30
2017-11-04T16:32:26.636Z,12.10
2017-11-04T16:34:54.223Z,11.83
2017-11-04T16:37:22.070Z,11.92
2017-11-04T16:39:49.685Z,11.85
2017-11-04T16:42:17.274Z,12.00
2017-11-04T16:44:44.990Z,11.99
2017-11-04T16:47:12.591Z,12.09
2017-11-04T16:49:40.238Z,12.15
2017-11-04T16:52:07.883Z,12.05
2017-11-04T16:54:35.499Z,11.81
2017-11-04T16:57:03.114Z,11.78
2017-11-04T16:59:30.870Z,11.42
2017-11-04T17:01:58.517Z,11.17
2017-11-04T17:04:26.124Z,11.18
2017-11-04T17:06:53.745Z,11.32
2017-11-04T17:09:21.427Z,11.32
2017-11-04T17:11:49.275Z,11.21
2017-11-04T17:14:16.880Z,11.24
2017-11-04T17:16:44.587Z,11.12
2017-11-04T17:19:12.137Z,11.08
2017-11-04T17:21:39.791Z,11.24
2017-11-04T17:24:07.433Z,11.34
2017-11-04T17:26:35.099Z,11.43
2017-11-04T17:29:02.750Z,11.42
2017-11-04T17:31:30.398Z,11.47
2017-11-04T17:33:58.150Z,11.36
2017-11-04T17:36:25.818Z,11.62
2017-11-04T17:38:53.866Z,11.70
2017-11-04T17:41:22.567Z,11.76
2017-11-04T17:43:50.214Z,11.69
2017-11-04T17:46:17.950Z,11.39
2017-11-04T17:48:45.633Z,11.51
2017-11-04T17:51:13.280Z,11.47
2017-11-04T17:53:40.925Z,11.64
2017-11-04T17:56:08.551Z,11.79
2017-11-04T17:58:36.143Z,11.81
2017-11-04T18:01:03.774Z,11.67
2017-11-04T18:03:31.544Z,11.46
2017-11-04T18:05:59.266Z,11.48
2017-11-04T18:08:27.019Z,11.50
2017-11-04T18:10:54.581Z,11.39
2017-11-04T18:13:22.957Z,11.64
2017-11-04T18:15:50.607Z,11.42
2017-11-04T18:18:19.030Z,11.62
2017-11-04T18:20:46.737Z,11.40
2017-11-04T18:23:14.943Z,11.31
2017-11-04T18:25:42.581Z,11.28
2017-11-04T18:28:10.210Z,11.15
2017-11-04T18:30:37.815Z,11.07
2017-11-04T18:33:05.424Z,11.04
2017-11-04T18:35:33.087Z,11.03
2017-11-04T18:38:00.715Z,11.01
2017-11-04T18:40:28.574Z,11.17
2017-11-04T18:42:56.250Z,11.04
2017-11-04T18:45:24.044Z,11.14
2017-11-04T18:47:51.743Z,11.28
2017-11-04T18:50:19.404Z,11.33
2017-11-04T18:52:47.086Z,11.38
2017-11-04T18:55:14.746Z,11.37
2017-11-04T18:57:42.330Z,11.36
2017-11-04T19:00:10.564Z,11.24
2017-11-04T19:02:38.189Z,11.05
2017-11-04T19:05:06.065Z,10.92
2017-11-04T19:07:33.928Z,10.83
2017-11-04T19:10:01.751Z,10.76
2017-11-04T19:12:29.403Z,10.73
2017-11-04T19:14:57.932Z,10.77
2017-11-04T19:17:25.622Z,10.77
2017-11-04T19:19:53.556Z,11.03
2017-11-04T19:22:21.218Z,11.05
2017-11-04T19:24:48.988Z,10.88
2017-11-04T19:27:16.606Z,10.55
2017-11-04T19:29:44.217Z,10.92
2017-11-04T19:32:11.918Z,10.47
2017-11-04T19:34:39.484Z,10.66
2017-11-04T19:37:07.054Z,10.79
2017-11-04T19:39:34.689Z,10.71
2017-11-04T19:42:02.279Z,10.75
2017-11-04T19:44:29.946Z,10.77
2017-11-04T19:46:57.659Z,10.65
2017-11-04T19:49:25.385Z,10.26
2017-11-04T19:51:53.215Z,10.08
2017-11-04T19:54:20.864Z,9.91
2017-11-04T19:56:49.087Z,9.86
2017-11-04T19:59:16.757Z,9.76
2017-11-04T20:01:44.387Z,9.77
2017-11-04T20:04:11.989Z,9.70
2017-11-04T20:06:39.669Z,9.72
2017-11-04T20:09:07.335Z,9.62
2017-11-04T20:11:35.238Z,9.89
2017-11-04T20:14:03.224Z,10.03
2017-11-04T20:16:30.841Z,10.06
2017-11-04T20:18:58.434Z,9.95
2017-11-04T20:21:26.115Z,10.14
2017-11-04T20:23:55.059Z,10.22
2017-11-04T20:26:22.694Z,10.07
2017-11-04T20:28:50.267Z,10.06
2017-11-04T20:31:17.919Z,9.95
2017-11-04T20:33:46.027Z,10.04
2017-11-04T20:36:13.948Z,10.21
2017-11-04T20:38:41.649Z,9.91
2017-11-04T20:41:09.274Z,9.74
2017-11-04T20:43:37.865Z,9.77
2017-11-04T20:46:05.731Z,9.70
2017-11-04T20:48:33.283Z,9.76
2017-11-04T20:51:00.963Z,10.17
2017-11-04T20:53:28.553Z,10.23
2017-11-04T20:55:56.312Z,10.28
2017-11-04T20:58:24.098Z,9.84
2017-11-04T21:00:51.893Z,9.95
2017-11-04T21:03:19.524Z,10.13
2017-11-04T21:05:47.363Z,9.91
2017-11-04T21:08:15.432Z,9.87
2017-11-04T21:10:43.409Z,9.82
2017-11-04T21:13:11.059Z,9.70
2017-11-04T21:15:38.694Z,10.01
2017-11-04T21:18:06.488Z,9.81
2017-11-04T21:20:34.315Z,9.93
2017-11-04T21:23:03.036Z,9.90
2017-11-04T21:25:30.856Z,9.73
2017-11-04T21:27:58.574Z,9.90
2017-11-04T21:30:26.282Z,9.75
2017-11-04T21:32:53.816Z,9.54
2017-11-04T21:35:21.424Z,9.32
2017-11-04T21:37:49.131Z,9.23
2017-11-04T21:40:16.808Z,8.87
2017-11-04T21:42:44.405Z,9.20
2017-11-04T21:45:12.107Z,9.31
2017-11-04T21:47:39.710Z,9.37
2017-11-04T21:50:15.651Z,9.62
2017-11-04T21:52:47.876Z,9.55
2017-11-04T21:55:18.104Z,9.18
2017-11-04T21:57:46.265Z,9.31
2017-11-04T22:00:13.991Z,9.16
2017-11-04T22:02:41.953Z,9.14
2017-11-04T22:05:09.810Z,9.03
2017-11-04T22:07:37.466Z,9.46
2017-11-04T22:10:05.091Z,9.21
2017-11-04T22:12:32.702Z,8.89
2017-11-04T22:15:00.309Z,8.60
2017-11-04T22:17:27.930Z,8.53
2017-11-04T22:19:55.545Z,8.77
2017-11-04T22:22:23.229Z,8.87
2017-11-04T22:24:50.901Z,8.68
2017-11-04T22:27:18.553Z,8.93
2017-11-04T22:29:46.235Z,9.05
2017-11-04T22:32:13.860Z,8.99
2017-11-04T22:34:41.494Z,9.22
2017-11-04T22:37:09.155Z,9.36
2017-11-04T22:39:36.837Z,9.05
2017-11-04T22:42:04.635Z,8.79
2017-11-04T22:44:32.447Z,8.77
2017-11-04T22:47:00.044Z,8.82
2017-11-04T22:49:27.656Z,8.67
2017-11-04T22:51:55.517Z,8.89
2017-11-04T22:54:23.196Z,8.65
2017-11-04T22:56:51.035Z,8.46
2017-11-04T22:59:18.621Z,8.83
2017-11-04T23:01:46.319Z,8.92
2017-11-04T23:04:13.900Z,8.78
2017-11-04T23:06:41.733Z,8.81
2017-11-04T23:09:09.372Z,8.60
2017-11-04T23:11:36.954Z,8.70
2017-11-04T23:14:04.592Z,8.97
2017-11-04T23:16:32.290Z,8.68
2017-11-04T23:18:59.960Z,8.34
2017-11-04T23:21:27.531Z,8.31
2017-11-04T23:23:55.160Z,8.56
2017-11-04T23:26:23.004Z,8.57
2017-11-04T23:28:50.616Z,8.68
2017-11-04T23:31:18.285Z,8.53
2017-11-04T23:33:45.957Z,8.63
2017-11-04T23:36:13.582Z,8.93
2017-11-04T23:38:41.222Z,8.89
2017-11-04T23:41:09.778Z,9.03
2017-11-04T23:43:37.487Z,8.63
2017-11-04T23:46:05.135Z,8.55
2017-11-04T23:48:32.975Z,8.51
2017-11-04T23:51:00.641Z,8.47
2017-11-04T23:53:28.295Z,8.56
2017-11-04T23:55:55.966Z,8.49
2017-11-04T23:58:23.621Z,8.40
